Tiempo atmosférico en la estación meteorológica de Alosno, Huelva (276 m.)



Fecha
DESCASC
Temp. máxima en grados centígrados (hora)
DESCASC
Temp. mínima en grados centígrados (hora)
DESCASC
Temp. media en grados centígrados
DESCASC
Racha de viento máxima en m/sg (hora)
DESCASC
Velocidad máxima media en intervalos de 10 minutos(hora)
DESCASC
Precipitaciones diarias en mm
DESCASC
Precipitaciones de 00:00 a 06:00 en mm
DESCASC
Precipitaciones de 06:00 a 12:00 en mm
DESCASC
Precipitaciones de 12:00 a 18:00 en mm
DESCASC
Precipitaciones de 18:00 a 24:00 en mm
DESCASC

Gráficas

Temp. máximas Temp. mínimas Temp. medias Precipitaciones Rachas de viento máximas Velocidades máximas media en intervalos de 10 minutos

Datos horarios

Fecha y hora oficial Temperatura (ºC) Velocidad del viento (km/h) Dirección del viento Racha (km/h) Dirección de racha Precipitación (mm) Presión (hPa) Tendencia (hPa) Humedad (%)
2019-06-25 23:00:00 22.4 12 Sur 30 Sur 0 -- -- 68
2019-06-25 22:00:00 24.1 22 Sur 29 Sur 0 -- -- 60
2019-06-25 21:00:00 26.5 21 Sur 28 Sudoeste 0 -- -- 50
2019-06-25 20:00:00 27.8 19 Sur 32 Sur 0 -- -- 44
2019-06-25 19:00:00 28.5 19 Sur 33 Sur 0 -- -- 41
2019-06-25 18:00:00 28.8 19 Sur 32 Sur 0 -- -- 39
2019-06-25 17:00:00 29.3 18 Sudoeste 32 Sudoeste 0 -- -- 36
2019-06-25 16:00:00 29.5 18 Sur 32 Sur 0 -- -- 36
2019-06-25 15:00:00 29.6 17 Sur 31 Sur 0 -- -- 38
2019-06-25 14:00:00 28.4 13 Sudoeste 27 Sur 0 -- -- 40
2019-06-25 13:00:00 27.1 12 Sudeste 24 Sur 0 -- -- 43
2019-06-25 12:00:00 25.3 12 Sudeste 21 Sudeste 0 -- -- 52
2019-06-25 11:00:00 23.3 9 Sur 18 Sur 0 -- -- 59
2019-06-25 10:00:00 21.1 7 Sur 15 Sur 0 -- -- 63
2019-06-25 09:00:00 19.7 4 Sudeste 11 Sur 0 -- -- 60
2019-06-25 08:00:00 17.2 3 Oeste 18 Oeste 0 -- -- 64
2019-06-25 07:00:00 16.5 10 Noroeste 18 Noroeste 0 -- -- 67
2019-06-25 06:00:00 17.1 5 Oeste 15 Noroeste 0 -- -- 66
2019-06-25 05:00:00 18 8 Noroeste 13 Oeste 0 -- -- 63
2019-06-25 04:00:00 18.5 8 Noroeste 15 Noroeste 0 -- -- 61
2019-06-25 03:00:00 19.2 10 Noroeste 19 Noroeste 0 -- -- 59
2019-06-25 02:00:00 20.1 12 Noroeste 19 Noroeste 0 -- -- 56
2019-06-25 01:00:00 21.3 13 Noroeste 21 Noroeste 0 -- -- 53
2019-06-25 00:00:00 22.5 12 Noroeste 20 Noroeste 0 -- -- 53
2019-06-24 23:00:00 23.1 7 Sur 19 Sudoeste 0 -- -- 61
2019-06-24 22:00:00 23.7 16 Sudoeste 26 Sur 0 -- -- 61
2019-06-24 21:00:00 25.2 21 Sur 33 Sur 0 -- -- 56
2019-06-24 20:00:00 26 26 Sur 35 Sur 0 -- -- 58
2019-06-24 19:00:00 28.2 16 Sudoeste 29 Sudoeste 0 -- -- 53
2019-06-24 18:00:00 27.9 18 Sur 31 Sur 0 -- -- 54
2019-06-24 17:00:00 28.1 14 Sudoeste 31 Sudoeste 0 -- -- 52
2019-06-24 16:00:00 28.1 19 Sudoeste 39 Sur 0 -- -- 53
2019-06-24 15:00:00 27 21 Sudoeste 33 Sudoeste 0 -- -- 56
2019-06-24 14:00:00 26.2 15 Sur 32 Sur 0 -- -- 57
2019-06-24 13:00:00 26.6 17 Sudoeste 30 Sudoeste 0 -- -- 57
2019-06-24 12:00:00 24.3 14 Sur 30 Sur 0 -- -- 65
2019-06-24 11:00:00 23.7 9 Sur 17 Sur 0 -- -- 69
2019-06-24 10:00:00 23.4 6 Sudeste 15 Sudeste 0 -- -- 71
2019-06-24 09:00:00 20.2 5 Noroeste 14 Noroeste 0 -- -- 85
2019-06-24 08:00:00 18.5 8 Noroeste 19 Oeste 0 -- -- 94
2019-06-24 07:00:00 18.1 10 Noroeste 17 Noroeste 0 -- -- 93
2019-06-24 06:00:00 18.6 10 Noroeste 17 Noroeste 0 -- -- 91
2019-06-24 05:00:00 18.9 9 Noroeste 19 Noroeste 0 -- -- 89
2019-06-24 04:00:00 19.4 12 Noroeste 21 Noroeste 0 -- -- 88
2019-06-24 03:00:00 19.8 13 Noroeste 20 Noroeste 0 -- -- 85
2019-06-24 02:00:00 20.4 13 Noroeste 24 Noroeste 0 -- -- 82
2019-06-24 01:00:00 21.3 15 Noroeste 25 Noroeste 0 -- -- 78
2019-06-24 00:00:00 22.7 12 Noroeste 20 Noroeste 0 -- -- 69
2019-06-23 23:00:00 23.8 11 Noroeste 20 Noroeste 0 -- -- 64
2019-06-23 22:00:00 23.9 9 Oeste 18 Sudoeste 0 -- -- 34
2019-06-23 21:00:00 24.9 15 Sudoeste 25 Sudoeste 0 -- -- 32
2019-06-23 20:00:00 26.2 18 Sur 29 Sur 0 -- -- 33
2019-06-23 19:00:00 26.7 20 Sur 31 Sur 0 -- -- 35
2019-06-23 18:00:00 27.6 22 Sur 32 Sur 0 -- -- 41
2019-06-23 17:00:00 28.6 21 Sur 32 Sudeste 0 -- -- 40
2019-06-23 16:00:00 28.3 18 Sur 29 Sudeste 0 -- -- 38
2019-06-23 15:00:00 29.1 12 Sudoeste 28 Sur 0 -- -- 30
2019-06-23 14:00:00 28.7 9 Sur 24 Sudoeste 0 -- -- 29
2019-06-23 13:00:00 27.3 9 Sudoeste 20 Sudoeste 0 -- -- 34
2019-06-23 12:00:00 25.7 6 Oeste 17 Oeste 0 -- -- 38
2019-06-23 11:00:00 23.4 7 Oeste 12 Noroeste 0 -- -- 38
2019-06-23 10:00:00 20.7 3 Noroeste 12 Noroeste 0 -- -- 44
2019-06-23 09:00:00 17.6 3 Oeste 17 Oeste 0 -- -- 59
2019-06-23 08:00:00 15.5 14 Oeste 23 Noroeste 0 -- -- 63
2019-06-23 07:00:00 15.3 10 Noroeste 20 Noroeste 0 -- -- 62
2019-06-23 06:00:00 15.2 11 Noroeste 17 Noroeste 0 -- -- 60
2019-06-23 05:00:00 15.6 11 Noroeste 18 Noroeste 0 -- -- 58
2019-06-23 04:00:00 16.3 12 Noroeste 19 Noroeste 0 -- -- 54
2019-06-23 03:00:00 17.1 9 Noroeste 15 Noroeste 0 -- -- 50
2019-06-23 02:00:00 18.2 9 Noroeste 22 Noroeste 0 -- -- 43
2019-06-23 01:00:00 20.4 14 Noroeste 26 Noroeste 0 -- -- 37
2019-06-23 00:00:00 21.9 15 Noroeste 23 Noroeste 0 -- -- 30
2019-06-22 23:00:00 23.5 10 Noroeste 18 Oeste 0 -- -- 28
2019-06-22 22:00:00 24.3 9 Sur 27 Sur 0 -- -- 30
2019-06-22 21:00:00 25.9 22 Sur 30 Sur 0 -- -- 34
2019-06-22 20:00:00 28 20 Sur 27 Sur 0 -- -- 39
2019-06-22 19:00:00 29.7 16 Sur 27 Sudoeste 0 -- -- 29
2019-06-22 18:00:00 30 15 Sur 30 Sudoeste 0 -- -- 31
2019-06-22 17:00:00 29.8 17 Sur 29 Sur 0 -- -- 30
2019-06-22 16:00:00 29.6 14 Sur 26 Sudoeste 0 -- -- 32
2019-06-22 15:00:00 28.9 16 Sur 29 Sur 0 -- -- 35
2019-06-22 14:00:00 28.2 15 Sur 28 Sur 0 -- -- 37
2019-06-22 13:00:00 27.7 12 Sur 26 Sudoeste 0 -- -- 35
2019-06-22 12:00:00 25.2 13 Sur 21 Sur 0 -- -- 39
2019-06-22 11:00:00 23.8 8 Sudoeste 15 Sudoeste 0 -- -- 41
2019-06-22 10:00:00 20 7 Noroeste 13 Noroeste 0 -- -- 51
2019-06-22 09:00:00 17 5 Noroeste 21 Noroeste 0 -- -- 58
2019-06-22 08:00:00 14.5 13 Noroeste 21 Noroeste 0 -- -- 66
2019-06-22 07:00:00 14.5 13 Noroeste 23 Noroeste 0 -- -- 65
2019-06-22 06:00:00 15.2 15 Noroeste 24 Noroeste 0 -- -- 63
2019-06-22 05:00:00 16.1 16 Noroeste 25 Noroeste 0 -- -- 60
2019-06-22 04:00:00 17 15 Noroeste 23 Noroeste 0 -- -- 56
2019-06-22 03:00:00 18.3 13 Noroeste 28 Noroeste 0 -- -- 52
2019-06-22 02:00:00 19.4 15 Noroeste 24 Noroeste 0 -- -- 51
2019-06-22 01:00:00 20.8 14 Noroeste 25 Noroeste 0 -- -- 49
2019-06-22 00:00:00 22.2 15 Noroeste 28 Noroeste 0 -- -- 46
2019-06-21 23:00:00 23.7 15 Noroeste 36 Noroeste 0 -- -- 43
2019-06-21 22:00:00 25.7 19 Noroeste 31 Noroeste 0 -- -- 38
2019-06-21 21:00:00 28.2 14 Norte 28 Noroeste 0 -- -- 28
2019-06-21 20:00:00 29.1 17 Noroeste 35 Norte 0 -- -- 30
2019-06-21 19:00:00 29.3 12 Noroeste 30 Noroeste 0 -- -- 30
2019-06-21 18:00:00 28.9 15 Norte 34 Noroeste 0 -- -- 30
2019-06-21 17:00:00 28.5 9 Noroeste 29 Noroeste 0 -- -- 31
2019-06-21 16:00:00 27.5 15 Noroeste 36 Noroeste 0 -- -- 32
2019-06-21 15:00:00 26.6 13 Noroeste 32 Noroeste 0 -- -- 36
2019-06-21 14:00:00 25.2 14 Noroeste 28 Noroeste 0 -- -- 41
2019-06-21 13:00:00 22.6 16 Noroeste 30 Noroeste 0 -- -- 50
2019-06-21 12:00:00 20.1 18 Noroeste 29 Norte 0 -- -- 60
2019-06-21 11:00:00 17.9 14 Noroeste 25 Noroeste 0 -- -- 67
2019-06-21 10:00:00 15.7 16 Noroeste 32 Norte 0 -- -- 76
2019-06-21 09:00:00 14.4 20 Noroeste 35 Noroeste 0 -- -- 81
2019-06-21 08:00:00 13.3 25 Noroeste 35 Noroeste 0 -- -- 86
2019-06-21 07:00:00 12.7 18 Noroeste 32 Noroeste 0 -- -- 88
2019-06-21 06:00:00 13.1 18 Noroeste 33 Noroeste 0 -- -- 86
2019-06-21 05:00:00 13.9 16 Noroeste 32 Noroeste 0 -- -- 82
2019-06-21 04:00:00 14.7 14 Noroeste 29 Noroeste 0 -- -- 77
2019-06-21 03:00:00 15.7 15 Noroeste 33 Norte 0 -- -- 72
2019-06-21 02:00:00 16.8 20 Noroeste 31 Noroeste 0 -- -- 68
2019-06-21 01:00:00 17.2 16 Noroeste 30 Noroeste 0 -- -- 70
2019-06-21 00:00:00 18.6 20 Noroeste 36 Noroeste 0 -- -- 64
2019-06-20 23:00:00 20.3 15 Noroeste 31 Noroeste 0 -- -- 54
2019-06-20 22:00:00 21.5 23 Noroeste 35 Noroeste 0 -- -- 50
2019-06-20 21:00:00 23.5 18 Noroeste 37 Noroeste 0 -- -- 47
2019-06-20 20:00:00 24.6 22 Noroeste 33 Noroeste 0 -- -- 43
2019-06-20 19:00:00 25.2 17 Noroeste 33 Noroeste 0 -- -- 40
2019-06-20 18:00:00 25 21 Noroeste 37 Noroeste 0 -- -- 41
2019-06-20 17:00:00 25.6 21 Noroeste 37 Noroeste 0 -- -- 39
2019-06-20 16:00:00 25.1 16 Noroeste 35 Oeste 0 -- -- 41
2019-06-20 15:00:00 24.7 16 Noroeste 31 Oeste 0 -- -- 42
2019-06-20 14:00:00 24.2 10 Oeste 31 Noroeste 0 -- -- 46
2019-06-20 13:00:00 22.8 14 Noroeste 32 Oeste 0 -- -- 51
2019-06-20 12:00:00 21.7 15 Noroeste 31 Noroeste 0 -- -- 57
2019-06-20 11:00:00 19.7 17 Noroeste 26 Noroeste 0 -- -- 66
2019-06-20 10:00:00 17.6 18 Noroeste 27 Noroeste 0 -- -- 79
2019-06-20 09:00:00 15.6 17 Noroeste 24 Noroeste 0 -- -- 91
2019-06-20 08:00:00 14.1 16 Noroeste 23 Noroeste 0 -- -- 97
2019-06-20 07:00:00 14 10 Noroeste 20 Noroeste 0 -- -- 96
2019-06-20 06:00:00 14.8 12 Noroeste 22 Noroeste 0 -- -- 95
2019-06-20 05:00:00 15.2 12 Noroeste 20 Noroeste 0 -- -- 92
2019-06-20 04:00:00 15.5 13 Noroeste 22 Noroeste 0 -- -- 89
2019-06-20 03:00:00 16 13 Noroeste 24 Noroeste 0 -- -- 80
2019-06-20 02:00:00 17 16 Noroeste 25 Noroeste 0 -- -- 75
2019-06-20 01:00:00 18.1 17 Noroeste 31 Noroeste 0 -- -- 69
2019-06-20 00:00:00 19.5 19 Noroeste 30 Oeste 0 -- -- 64
2019-06-19 23:00:00 20.9 12 Noroeste 22 Noroeste 0 -- -- 60
2019-06-19 22:00:00 22.5 15 Noroeste 30 Oeste 0 -- -- 57
2019-06-19 21:00:00 24.7 18 Oeste 35 Noroeste 0 -- -- 51
2019-06-19 20:00:00 26.7 15 Noroeste 31 Noroeste 0 -- -- 47
2019-06-19 19:00:00 26 8 Noroeste 22 Noroeste 0 -- -- 48
2019-06-19 18:00:00 26.7 11 Noroeste 19 Noroeste 0 -- -- 46
2019-06-19 17:00:00 25.5 10 Noroeste 17 Sur 0 -- -- 48
2019-06-19 16:00:00 25.2 8 Noroeste 19 Noroeste 0 -- -- 49
2019-06-19 15:00:00 24 6 Oeste 20 Sur 0 -- -- 54
2019-06-19 14:00:00 24.2 10 Sudoeste 22 Sudoeste 0 -- -- 50
2019-06-19 13:00:00 23.1 10 Sudoeste 22 Sudoeste 0 -- -- 55
2019-06-19 12:00:00 21.9 6 Sur 19 Sur 0 -- -- 63
2019-06-19 11:00:00 20.2 7 Sur 14 Sur 0 -- -- 73
2019-06-19 10:00:00 18.2 6 Sur 10 Sur 0 -- -- 82
2019-06-19 09:00:00 17.2 4 Sur 6 Sudeste 0 -- -- 86
2019-06-19 08:00:00 16.1 2 Sur 3 Nordeste 0 -- -- 91
2019-06-19 07:00:00 15.9 2 Este 4 Noroeste 0 -- -- 91
2019-06-19 06:00:00 15.9 3 Noroeste 4 Noroeste 0 -- -- 91
2019-06-19 05:00:00 15.8 0 Calma 9 Noroeste 0 -- -- 91
2019-06-19 04:00:00 15.9 5 Oeste 15 Oeste 0 -- -- 90
2019-06-19 03:00:00 16.4 9 Oeste 17 Oeste 0 -- -- 88
2019-06-19 02:00:00 16.6 9 Oeste 12 Oeste 0 -- -- 88
2019-06-19 01:00:00 17.1 9 Oeste 14 Sudoeste 0 -- -- 87
2019-06-19 00:00:00 17.6 10 Sudoeste 19 Sur 0 -- -- 86
2019-06-18 23:00:00 18.1 15 Sur 26 Sur 0 -- -- 87
2019-06-18 22:00:00 19.4 20 Sur 30 Sudoeste 0 -- -- 80
2019-06-18 21:00:00 21.4 17 Sur 30 Sudoeste 0 -- -- 71
2019-06-18 20:00:00 22.2 22 Sur 33 Sur 0 -- -- 67
2019-06-18 19:00:00 22.5 20 Sudoeste 33 Sudoeste 0 -- -- 65
2019-06-18 18:00:00 22.8 19 Sudoeste 32 Sudoeste 0 -- -- 64
2019-06-18 17:00:00 21.6 18 Sudoeste 33 Sudoeste 0 -- -- 68
2019-06-18 16:00:00 20.4 22 Sudoeste 36 Sur 0 -- -- 74
2019-06-18 15:00:00 19.8 20 Sur 33 Sudoeste 0 -- -- 74
2019-06-18 14:00:00 19.6 21 Sur 33 Sudoeste 0 -- -- 76
2019-06-18 13:00:00 19.9 19 Sur 28 Sur 0 -- -- 70
2019-06-18 12:00:00 18.7 12 Sur 22 Sur 0 -- -- 72
2019-06-18 11:00:00 17.3 11 Sur 18 Sur 0 -- -- 76
2019-06-18 10:00:00 16.9 3 Sudeste 17 Sur 0 -- -- 74
2019-06-18 09:00:00 15.4 9 Sudoeste 13 Sudoeste 0 -- -- 81
2019-06-18 08:00:00 13.9 2 Sudoeste 5 Noroeste 0 -- -- 82
2019-06-18 07:00:00 13 4 Noroeste 12 Noroeste 0 -- -- 80
2019-06-18 06:00:00 13.4 5 Noroeste 12 Noroeste 0 -- -- 79
2019-06-18 05:00:00 13.5 10 Noroeste 15 Noroeste 0 -- -- 73
2019-06-18 04:00:00 14.4 5 Noroeste 9 Noroeste 0 -- -- 67
2019-06-18 03:00:00 15.7 5 Noroeste 10 Noroeste 0 -- -- 53
2019-06-18 02:00:00 16.4 4 Sudoeste 8 Oeste 0 -- -- 51
2019-06-18 01:00:00 17.3 6 Sur 19 Sur 0 -- -- 46
2019-06-18 00:00:00 18.2 12 Sur 28 Sur 0 -- -- 42
2019-06-17 23:00:00 19.5 24 Sur 29 Sur 0 -- -- 30
2019-06-17 22:00:00 21.1 11 Sur 23 Sur 0 -- -- 34
2019-06-17 21:00:00 23.2 16 Sur 24 Sudoeste 0 -- -- 26
2019-06-17 20:00:00 24.8 15 Sur 31 Sur 0 -- -- 21
2019-06-17 19:00:00 25.3 17 Sur 30 Sur 0 -- -- 23
2019-06-17 18:00:00 24.9 18 Sur 33 Sudoeste 0 -- -- 30
2019-06-17 17:00:00 25.4 21 Sudoeste 34 Sur 0 -- -- 26
2019-06-17 16:00:00 25.1 21 Sur 39 Sur 0 -- -- 33
2019-06-17 15:00:00 24.8 21 Sur 39 Sur 0 -- -- 38
2019-06-17 14:00:00 24.1 23 Sur 39 Sur 0 -- -- 38
2019-06-17 13:00:00 23.5 21 Sur 31 Sudeste 0 -- -- 40
2019-06-17 12:00:00 22 16 Sur 29 Sur 0 -- -- 46
2019-06-17 11:00:00 19.7 18 Sur 30 Sudeste 0 -- -- 59
2019-06-17 10:00:00 19 12 Sur 25 Sudeste 0 -- -- 59
2019-06-17 09:00:00 16.8 15 Sur 26 Sur 0 -- -- 62
2019-06-17 08:00:00 16 12 Sudeste 19 Sudeste 0 -- -- 61
2019-06-17 07:00:00 13.2 3 Este 6 Noroeste 0 -- -- 76
2019-06-17 06:00:00 13.1 4 Noroeste 8 Noroeste 0 -- -- 76
2019-06-17 05:00:00 13.6 4 Oeste 9 Oeste 0 -- -- 72
2019-06-17 04:00:00 14 5 Oeste 15 Noroeste 0 -- -- 69
2019-06-17 03:00:00 14.8 7 Noroeste 17 Noroeste 0 -- -- 63
2019-06-17 02:00:00 15.7 10 Oeste 17 Noroeste 0 -- -- 60
2019-06-17 01:00:00 17.3 10 Noroeste 17 Noroeste 0 -- -- 55
2019-06-17 00:00:00 18.8 9 Oeste 22 Oeste 0 -- -- 50
2019-06-16 23:00:00 20.3 5 Oeste 18 Sur 0 -- -- 48
2019-06-16 22:00:00 22 17 Sur 28 Sur 0 -- -- 41
2019-06-16 21:00:00 23.8 21 Sur 33 Sur 0 -- -- 37
2019-06-16 20:00:00 24.7 25 Sur 35 Sur 0 -- -- 35
2019-06-16 19:00:00 25.2 25 Sur 39 Sur 0 -- -- 33
2019-06-16 18:00:00 26.3 27 Sur 39 Sur 0 -- -- 32
2019-06-16 17:00:00 27.7 19 Sur 33 Sur 0 -- -- 32
2019-06-16 16:00:00 28.5 16 Sudoeste 24 Sudoeste 0 -- -- 23
2019-06-16 15:00:00 28 12 Sur 24 Sur 0 -- -- 27
2019-06-16 14:00:00 27.4 8 Sudeste 27 Sudeste 0 -- -- 29
2019-06-16 13:00:00 25.5 6 Oeste 19 Sur 0 -- -- 33
2019-06-16 12:00:00 22.9 6 Sur 13 Sur 0 -- -- 37
2019-06-16 11:00:00 20.8 4 Noroeste 12 Oeste 0 -- -- 48
2019-06-16 10:00:00 18 10 Oeste 15 Noroeste 0 -- -- 58
2019-06-16 09:00:00 15.1 9 Noroeste 19 Noroeste 0 -- -- 66
2019-06-16 08:00:00 13.4 13 Noroeste 22 Noroeste 0 -- -- 72
2019-06-16 07:00:00 13.4 13 Noroeste 24 Noroeste 0 -- -- 72
2019-06-16 06:00:00 13.8 16 Noroeste 24 Oeste 0 -- -- 70
2019-06-16 05:00:00 14.3 16 Noroeste 23 Noroeste 0 -- -- 69
2019-06-16 04:00:00 15.1 14 Noroeste 24 Noroeste 0 -- -- 67
2019-06-16 03:00:00 15.8 18 Noroeste 26 Noroeste 0 -- -- 64
2019-06-16 02:00:00 16.7 16 Noroeste 24 Noroeste 0 -- -- 60
2019-06-16 01:00:00 18.3 18 Noroeste 29 Noroeste 0 -- -- 55
2019-06-16 00:00:00 19.5 17 Noroeste 31 Noroeste 0 -- -- 50
2019-06-15 23:00:00 22.2 9 Noroeste 18 Noroeste 0 -- -- 33
2019-06-15 22:00:00 23.3 10 Noroeste 22 Noroeste 0 -- -- 31
2019-06-15 21:00:00 24.8 14 Noroeste 30 Noroeste 0 -- -- 29
2019-06-15 20:00:00 25.7 13 Norte 27 Noroeste 0 -- -- 26
2019-06-15 19:00:00 26.3 12 Noroeste 28 Norte 0 -- -- 25
2019-06-15 18:00:00 26.1 13 Noroeste 27 Oeste 0 -- -- 26
2019-06-15 17:00:00 25.4 13 Noroeste 26 Noroeste 0 -- -- 28
2019-06-15 16:00:00 25 14 Noroeste 27 Norte 0 -- -- 29
2019-06-15 15:00:00 23.7 14 Noroeste 24 Noroeste 0 -- -- 32
2019-06-15 14:00:00 22.9 11 Noroeste 26 Noroeste 0 -- -- 34
2019-06-15 13:00:00 21.5 12 Noroeste 22 Noroeste 0 -- -- 37
2019-06-15 12:00:00 20.2 12 Noroeste 23 Noroeste 0 -- -- 44
2019-06-15 11:00:00 18 11 Noroeste 21 Noroeste 0 -- -- 56
2019-06-15 10:00:00 16 8 Norte 14 Norte 0 -- -- 65
2019-06-15 09:00:00 13.2 9 Noroeste 14 Noroeste 0 -- -- 81
2019-06-15 08:00:00 11 9 Noroeste 15 Noroeste 0 -- -- 90
2019-06-15 07:00:00 10.7 7 Noroeste 14 Noroeste 0 -- -- 90
2019-06-15 06:00:00 11.3 10 Noroeste 20 Noroeste 0 -- -- 87
2019-06-15 05:00:00 11.7 12 Noroeste 21 Noroeste 0 -- -- 83
2019-06-15 04:00:00 12.3 13 Noroeste 22 Noroeste 0 -- -- 77
2019-06-15 03:00:00 13 12 Noroeste 23 Noroeste 0 -- -- 70
2019-06-15 02:00:00 13.9 15 Noroeste 23 Noroeste 0 -- -- 63
2019-06-15 01:00:00 14.8 14 Noroeste 22 Noroeste 0 -- -- 55
2019-06-15 00:00:00 15.8 13 Noroeste 26 Oeste 0 -- -- 51
2019-06-14 23:00:00 17 13 Noroeste 26 Noroeste 0 -- -- 50
2019-06-14 22:00:00 18.6 15 Noroeste 32 Noroeste 0 -- -- 45
2019-06-14 21:00:00 20.8 18 Noroeste 30 Noroeste 0 -- -- 39
2019-06-14 20:00:00 21.8 17 Noroeste 30 Noroeste 0 -- -- 36
2019-06-14 19:00:00 21.9 16 Norte 30 Oeste 0 -- -- 36
2019-06-14 18:00:00 21.9 15 Noroeste 31 Noroeste 0 -- -- 36
2019-06-14 17:00:00 21.4 13 Noroeste 36 Noroeste 0 -- -- 38
2019-06-14 16:00:00 21.4 17 Noroeste 33 Oeste 0 -- -- 36
2019-06-14 15:00:00 20.4 16 Oeste 29 Noroeste 0 -- -- 40
2019-06-14 14:00:00 19.7 16 Oeste 34 Noroeste 0 -- -- 42
2019-06-14 13:00:00 18.2 18 Noroeste 32 Oeste 0 -- -- 45
2019-06-14 12:00:00 17.1 17 Noroeste 33 Oeste 0 -- -- 51
2019-06-14 11:00:00 15.7 17 Noroeste 30 Noroeste 0 -- -- 57
2019-06-14 10:00:00 14.3 18 Noroeste 30 Norte 0 -- -- 68
2019-06-14 09:00:00 12.4 16 Noroeste 30 Noroeste 0 -- -- 78
2019-06-14 08:00:00 10.7 18 Noroeste 27 Noroeste 0 -- -- 85
2019-06-14 07:00:00 10.4 16 Noroeste 26 Noroeste 0 -- -- 84
2019-06-14 06:00:00 11 16 Noroeste 26 Noroeste 0 -- -- 80
2019-06-14 05:00:00 11.5 16 Noroeste 27 Noroeste 0 -- -- 74
2019-06-14 04:00:00 12.6 18 Noroeste 27 Noroeste 0 -- -- 66
2019-06-14 03:00:00 13.7 16 Noroeste 32 Noroeste 0 -- -- 61
2019-06-14 02:00:00 14.8 19 Noroeste 31 Noroeste 0 -- -- 57
2019-06-14 01:00:00 15.8 14 Noroeste 28 Noroeste 0 -- -- 55
2019-06-14 00:00:00 16.9 18 Noroeste 36 Noroeste 0 -- -- 55
2019-06-13 23:00:00 18.8 22 Noroeste 32 Noroeste 0 -- -- 48
2019-06-13 22:00:00 21 15 Noroeste 29 Noroeste 0 -- -- 40
2019-06-13 21:00:00 23.8 13 Noroeste 29 Oeste 0 -- -- 28
2019-06-13 20:00:00 24.8 16 Noroeste 28 Oeste 0 -- -- 26
2019-06-13 19:00:00 25.2 18 Noroeste 30 Oeste 0 -- -- 26
2019-06-13 18:00:00 25.5 15 Noroeste 30 Noroeste 0 -- -- 26
2019-06-13 17:00:00 24.9 14 Noroeste 30 Oeste 0 -- -- 25
2019-06-13 16:00:00 24.6 15 Noroeste 32 Noroeste 0 -- -- 25
2019-06-13 15:00:00 23.6 12 Noroeste 24 Noroeste 0 -- -- 27
2019-06-13 14:00:00 22.3 14 Noroeste 28 Noroeste 0 -- -- 31
2019-06-13 13:00:00 20.3 16 Noroeste 31 Oeste 0 -- -- 36
2019-06-13 12:00:00 18.1 17 Noroeste 29 Noroeste 0 -- -- 45
2019-06-13 11:00:00 15.7 19 Noroeste 28 Norte 0 -- -- 56
2019-06-13 10:00:00 13.7 18 Noroeste 33 Noroeste 0 -- -- 66
2019-06-13 09:00:00 12.2 20 Noroeste 33 Noroeste 0 -- -- 75
2019-06-13 08:00:00 10.8 17 Noroeste 30 Noroeste 0 -- -- 78
2019-06-13 07:00:00 10.3 18 Noroeste 33 Noroeste 0 -- -- 75
2019-06-13 06:00:00 11.1 18 Noroeste 30 Noroeste 0 -- -- 71
2019-06-13 05:00:00 11.9 19 Noroeste 30 Noroeste 0 -- -- 64
2019-06-13 04:00:00 13 18 Noroeste 29 Noroeste 0 -- -- 58
2019-06-13 03:00:00 14.2 17 Noroeste 25 Noroeste 0 -- -- 52
2019-06-13 02:00:00 15.9 18 Noroeste 27 Noroeste 0 -- -- 46
2019-06-13 01:00:00 17.5 15 Noroeste 35 Noroeste 0 -- -- 39
2019-06-13 00:00:00 19.2 22 Noroeste 35 Noroeste 0 -- -- 36
2019-06-12 23:00:00 21.3 18 Noroeste 32 Noroeste 0 -- -- 32
2019-06-12 22:00:00 23.2 10 Oeste 22 Sudoeste 0 -- -- 48
2019-06-12 21:00:00 25.1 14 Sudoeste 30 Sudoeste 0 -- -- 42
2019-06-12 20:00:00 25.9 22 Sudoeste 37 Sudoeste 0 -- -- 39
2019-06-12 19:00:00 26.8 23 Sudoeste 36 Sudoeste 0 -- -- 39
2019-06-12 18:00:00 28 13 Sudoeste 30 Sudoeste 0 -- -- 30
2019-06-12 17:00:00 27 21 Sudoeste 33 Sur 0 -- -- 36
2019-06-12 16:00:00 26.7 18 Sur 35 Sur 0 -- -- 37
2019-06-12 15:00:00 26.2 14 Sur 28 Sur 0 -- -- 38
2019-06-12 14:00:00 25.5 13 Sur 24 Sudoeste 0 -- -- 37
2019-06-12 13:00:00 24 12 Sur 23 Sudoeste 0 -- -- 40
2019-06-12 12:00:00 23.3 10 Sudeste 22 Sur 0 -- -- 42
2019-06-12 11:00:00 21.7 11 Sudeste 20 Sudeste 0 -- -- 30
2019-06-12 10:00:00 21.1 5 Este 11 Este 0 -- -- 30
2019-06-12 09:00:00 16.5 8 Noroeste 12 Noroeste 0 -- -- 45
2019-06-12 08:00:00 14.2 6 Noroeste 12 Noroeste 0 -- -- 54
2019-06-12 07:00:00 13.2 7 Noroeste 14 Noroeste 0 -- -- 60
2019-06-12 06:00:00 13.9 9 Noroeste 21 Noroeste 0 -- -- 60
2019-06-12 05:00:00 15 12 Noroeste 19 Noroeste 0 -- -- 58
2019-06-12 04:00:00 15.8 12 Noroeste 21 Noroeste 0 -- -- 55
2019-06-12 03:00:00 16.3 13 Noroeste 24 Noroeste 0 -- -- 54
2019-06-12 02:00:00 17.6 14 Noroeste 23 Norte 0 -- -- 45
2019-06-12 01:00:00 20.6 13 Norte 21 Norte 0 -- -- 25
2019-06-12 00:00:00 21.5 13 Norte 20 Norte 0 -- -- 26
2019-06-11 23:00:00 21.8 9 Norte 19 Norte 0 -- -- 24
2019-06-11 22:00:00 23.6 11 Norte 28 Norte 0 -- -- 21
2019-06-11 21:00:00 25.6 19 Norte 36 Norte 0 -- -- 19
2019-06-11 20:00:00 26.5 17 Norte 34 Norte 0 -- -- 21
2019-06-11 19:00:00 26.6 18 Noroeste 40 Noroeste 0 -- -- 25
2019-06-11 18:00:00 26.6 14 Norte 36 Norte 0 -- -- 23
2019-06-11 17:00:00 26.2 18 Norte 36 Norte 0 -- -- 28
2019-06-11 16:00:00 25.4 19 Norte 34 Norte 0 -- -- 32
2019-06-11 15:00:00 24.6 18 Noroeste 36 Norte 0 -- -- 37
2019-06-11 14:00:00 22.9 19 Norte 34 Norte 0 -- -- 41
2019-06-11 13:00:00 21.7 16 Norte 35 Norte 0 -- -- 45
2019-06-11 12:00:00 19.3 17 Noroeste 31 Noroeste 0 -- -- 52
2019-06-11 11:00:00 -- -- -- -- -- -- -- -- --
2019-06-11 10:00:00 -- -- -- -- -- -- -- -- --
2019-06-11 09:00:00 -- -- -- -- -- -- -- -- --
2019-06-11 08:00:00 -- -- -- -- -- -- -- -- --
2019-06-11 07:00:00 -- -- -- -- -- -- -- -- --
2019-06-11 06:00:00 11.8 17 Noroeste 30 Noroeste 0 -- -- 79
2019-06-11 05:00:00 12.4 22 Noroeste 38 Noroeste 0 -- -- 74
2019-06-11 04:00:00 13.2 24 Noroeste 39 Noroeste 0 -- -- 68
2019-06-11 03:00:00 14.1 22 Noroeste 33 Noroeste 0 -- -- 61
2019-06-11 02:00:00 15.5 22 Noroeste 34 Noroeste 0 -- -- 56
2019-06-11 01:00:00 17.5 19 Noroeste 33 Noroeste 0 -- -- 47
2019-06-11 00:00:00 19 22 Noroeste 45 Noroeste 0 -- -- 43
2019-06-10 23:00:00 21 22 Noroeste 48 Noroeste 0 -- -- 39
2019-06-10 22:00:00 23.5 19 Noroeste 31 Noroeste 0 -- -- 36
2019-06-10 21:00:00 25.7 22 Noroeste 33 Noroeste 0 -- -- 28
2019-06-10 20:00:00 26.9 16 Noroeste 33 Norte 0 -- -- 25
2019-06-10 19:00:00 26.8 19 Noroeste 32 Norte 0 -- -- 27
2019-06-10 18:00:00 27 17 Noroeste 36 Noroeste 0 -- -- 25
2019-06-10 17:00:00 26.5 13 Norte 31 Norte 0 -- -- 25
2019-06-10 16:00:00 25.9 8 Noroeste 32 Noroeste 0 -- -- 25
2019-06-10 15:00:00 24.3 13 Norte 28 Noroeste 0 -- -- 34
2019-06-10 14:00:00 22.9 10 Noroeste 27 Noroeste 0 -- -- 36
2019-06-10 13:00:00 21.8 11 Noroeste 28 Noroeste 0 -- -- 39
2019-06-10 12:00:00 19.7 17 Noroeste 31 Noroeste 0 -- -- 52
2019-06-10 11:00:00 17.7 17 Noroeste 29 Norte 0 -- -- 62
2019-06-10 10:00:00 15.6 16 Noroeste 28 Noroeste 0 -- -- 73
2019-06-10 09:00:00 13.9 14 Noroeste 22 Noroeste 0 -- -- 87
2019-06-10 08:00:00 12.5 12 Noroeste 20 Noroeste 0 -- -- 96
2019-06-10 07:00:00 12.2 12 Noroeste 22 Noroeste 0 -- -- 96
2019-06-10 06:00:00 12.8 14 Noroeste 22 Noroeste 0 -- -- 94
2019-06-10 05:00:00 13 15 Noroeste 31 Noroeste 0 -- -- 92
2019-06-10 04:00:00 13.3 18 Noroeste 31 Noroeste 0 -- -- 89
2019-06-10 03:00:00 13.9 18 Noroeste 29 Noroeste 0 -- -- 85
2019-06-10 02:00:00 14.6 16 Noroeste 30 Noroeste 0 -- -- 81
2019-06-10 01:00:00 15.6 17 Noroeste 37 Noroeste 0 -- -- 74
2019-06-10 00:00:00 16.7 20 Noroeste 39 Noroeste 0 -- -- 68
2019-06-09 23:00:00 18.1 26 Noroeste 41 Noroeste 0 -- -- 60
2019-06-09 22:00:00 20.4 25 Noroeste 41 Noroeste 0 -- -- 51
2019-06-09 21:00:00 23.3 21 Noroeste 38 Noroeste 0 -- -- 42
2019-06-09 20:00:00 24.5 27 Noroeste 41 Noroeste 0 -- -- 38
2019-06-09 19:00:00 25.6 21 Noroeste 38 Noroeste 0 -- -- 32
2019-06-09 18:00:00 26.1 21 Noroeste 37 Noroeste 0 -- -- 30
2019-06-09 17:00:00 26.1 21 Noroeste 40 Noroeste 0 -- -- 30
2019-06-09 16:00:00 25.5 20 Noroeste 36 Noroeste 0 -- -- 28
2019-06-09 15:00:00 24.1 18 Noroeste 34 Noroeste 0 -- -- 31
2019-06-09 14:00:00 22.8 20 Noroeste 35 Noroeste 0 -- -- 29
2019-06-09 13:00:00 21 15 Noroeste 34 Noroeste 0 -- -- 32
2019-06-09 12:00:00 18.9 20 Noroeste 35 Norte 0 -- -- 42
2019-06-09 11:00:00 17.1 19 Noroeste 34 Noroeste 0 -- -- 47
2019-06-09 10:00:00 14.9 21 Noroeste 37 Noroeste 0 -- -- 53
2019-06-09 09:00:00 12.4 20 Noroeste 33 Noroeste 0 -- -- 63
2019-06-09 08:00:00 10.7 18 Noroeste 33 Noroeste 0 -- -- 69
2019-06-09 07:00:00 10.4 19 Noroeste 29 Noroeste 0 -- -- 67
2019-06-09 06:00:00 10.9 17 Noroeste 25 Noroeste 0 -- -- 67
2019-06-09 05:00:00 11.9 15 Noroeste 21 Noroeste 0 -- -- 62
2019-06-09 04:00:00 13.5 13 Noroeste 23 Noroeste 0 -- -- 56
2019-06-09 03:00:00 14.6 15 Noroeste 25 Noroeste 0 -- -- 55
2019-06-09 02:00:00 16.1 17 Noroeste 28 Noroeste 0 -- -- 53
2019-06-09 01:00:00 17.8 19 Noroeste 31 Noroeste 0 -- -- 50
2019-06-09 00:00:00 19.4 17 Noroeste 31 Noroeste 0 -- -- 46
2019-06-08 23:00:00 20.9 19 Noroeste 44 Sudoeste 0 -- -- 42
2019-06-08 22:00:00 23.5 13 Sur 27 Sur 0 -- -- 29
2019-06-08 21:00:00 27.1 17 Sudoeste 27 Sudoeste 0 -- -- 18
2019-06-08 20:00:00 28.5 10 Noroeste 26 Noroeste 0 -- -- 18
2019-06-08 19:00:00 28.9 10 Noroeste 34 Noroeste 0 -- -- 17
2019-06-08 18:00:00 28.5 10 Oeste 32 Noroeste 0 -- -- 18
2019-06-08 17:00:00 27.9 14 Noroeste 26 Oeste 0 -- -- 20
2019-06-08 16:00:00 28 9 Oeste 23 Sudoeste 0 -- -- 21
2019-06-08 15:00:00 27 8 Oeste 24 Noroeste 0 -- -- 23
2019-06-08 14:00:00 26.4 4 Este 24 Oeste 0 -- -- 23
2019-06-08 13:00:00 24.6 9 Noroeste 23 Noroeste 0 -- -- 28
2019-06-08 12:00:00 22.7 12 Noroeste 21 Noroeste 0 -- -- 35
2019-06-08 11:00:00 19.5 13 Noroeste 20 Noroeste 0 -- -- 45
2019-06-08 10:00:00 16.2 14 Noroeste 23 Noroeste 0 -- -- 55
2019-06-08 09:00:00 13.6 15 Noroeste 24 Noroeste 0 -- -- 65
2019-06-08 08:00:00 11.8 17 Noroeste 24 Noroeste 0 -- -- 72
2019-06-08 07:00:00 11 15 Noroeste 22 Noroeste 0 -- -- 74
2019-06-08 06:00:00 11.6 14 Noroeste 21 Noroeste 0 -- -- 71
2019-06-08 05:00:00 13.2 11 Noroeste 22 Noroeste 0 -- -- 63
2019-06-08 04:00:00 14.5 15 Noroeste 25 Noroeste 0 -- -- 57
2019-06-08 03:00:00 15.2 15 Noroeste 24 Noroeste 0 -- -- 53
2019-06-08 02:00:00 15.6 13 Noroeste 21 Noroeste 0 -- -- 47
2019-06-08 01:00:00 17 12 Noroeste 19 Noroeste 0 -- -- 42
2019-06-08 00:00:00 17.8 11 Noroeste 24 Norte 0 -- -- 40
2019-06-07 23:00:00 19 13 Norte 25 Noroeste 0 -- -- 36
2019-06-07 22:00:00 20.3 17 Norte 33 Norte 0 -- -- 33
2019-06-07 21:00:00 22.2 19 Norte 33 Noroeste 0 -- -- 30
2019-06-07 20:00:00 22.9 20 Norte 35 Noroeste 0 -- -- 28
2019-06-07 19:00:00 23.6 18 Noroeste 34 Noroeste 0 -- -- 27
2019-06-07 18:00:00 23.1 21 Norte 36 Norte 0 -- -- 28
2019-06-07 17:00:00 23.1 16 Norte 32 Norte 0 -- -- 29
2019-06-07 16:00:00 22.1 16 Norte 33 Noroeste 0 -- -- 33
2019-06-07 15:00:00 21.2 10 Norte 32 Norte 0 -- -- 34
2019-06-07 14:00:00 20.3 17 Norte 31 Norte 0 -- -- 36
2019-06-07 13:00:00 18.9 14 Nordeste 33 Norte 0 -- -- 40
2019-06-07 12:00:00 17.6 17 Norte 31 Norte 0 -- -- 43
2019-06-07 11:00:00 16.3 18 Norte 34 Norte 0 -- -- 50
2019-06-07 10:00:00 14.7 17 Norte 28 Norte 0 -- -- 67
2019-06-07 09:00:00 12.9 14 Norte 23 Noroeste 0 -- -- 85
2019-06-07 08:00:00 11.4 15 Noroeste 24 Norte 0 -- -- 96
2019-06-07 07:00:00 11 12 Noroeste 18 Noroeste 0 -- -- 97
2019-06-07 06:00:00 11.8 9 Noroeste 22 Noroeste 0 -- -- 95
2019-06-07 05:00:00 12 8 Noroeste 20 Noroeste 0 -- -- 95
2019-06-07 04:00:00 12.1 6 Noroeste 14 Noroeste 0 -- -- 95
2019-06-07 03:00:00 12.2 10 Norte 32 Norte 0.4 -- -- 96
2019-06-07 02:00:00 14.1 19 Noroeste 36 Noroeste 0 -- -- 88
2019-06-07 01:00:00 16.2 7 Oeste 22 Oeste 0 -- -- 68
2019-06-07 00:00:00 16.8 13 Oeste 31 Noroeste 0 -- -- 66
2019-06-06 23:00:00 17.5 17 Noroeste 33 Noroeste 0 -- -- 61
2019-06-06 22:00:00 18.7 21 Noroeste 39 Noroeste 0 -- -- 56
2019-06-06 21:00:00 21.2 23 Oeste 38 Oeste 0 -- -- 47
2019-06-06 20:00:00 23.3 24 Noroeste 40 Noroeste 0 -- -- 38
2019-06-06 19:00:00 22.7 18 Sudoeste 37 Sur 0 -- -- 46
2019-06-06 18:00:00 23.6 19 Sudoeste 34 Sur 0 -- -- 44
2019-06-06 17:00:00 25 16 Sudoeste 37 Noroeste 0 -- -- 34
2019-06-06 16:00:00 23.8 10 Oeste 31 Noroeste 0 -- -- 34
2019-06-06 15:00:00 22.9 13 Sudoeste 28 Sudoeste 0 -- -- 33
2019-06-06 14:00:00 21.4 18 Noroeste 38 Oeste 0 -- -- 34
2019-06-06 13:00:00 20.4 13 Oeste 25 Oeste 0 -- -- 37
2019-06-06 12:00:00 19.1 11 Noroeste 21 Noroeste 0 -- -- 40
2019-06-06 11:00:00 17.2 11 Noroeste 22 Noroeste 0 -- -- 43
2019-06-06 10:00:00 15.2 10 Noroeste 19 Noroeste 0 -- -- 52
2019-06-06 09:00:00 13.2 9 Noroeste 16 Noroeste 0 -- -- 62
2019-06-06 08:00:00 10.8 11 Noroeste 19 Noroeste 0 -- -- 72
2019-06-06 07:00:00 10.4 10 Noroeste 22 Noroeste 0 -- -- 73
2019-06-06 06:00:00 10.8 11 Noroeste 21 Noroeste 0 -- -- 69
2019-06-06 05:00:00 11.3 12 Noroeste 24 Noroeste 0 -- -- 64
2019-06-06 04:00:00 12.2 17 Noroeste 26 Noroeste 0 -- -- 60
2019-06-06 03:00:00 13.1 14 Noroeste 27 Noroeste 0 -- -- 55
2019-06-06 02:00:00 13.9 16 Noroeste 26 Noroeste 0 -- -- 55
2019-06-06 01:00:00 14.5 17 Noroeste 27 Noroeste 0 -- -- 57
2019-06-06 00:00:00 15.9 18 Noroeste 36 Noroeste 0 -- -- 49
2019-06-05 23:00:00 17.8 20 Noroeste 31 Noroeste 0 -- -- 43
2019-06-05 22:00:00 19.6 13 Noroeste 28 Noroeste 0 -- -- 35
2019-06-05 21:00:00 21.5 15 Noroeste 33 Noroeste 0 -- -- 33
2019-06-05 20:00:00 22.3 16 Noroeste 36 Noroeste 0 -- -- 30
2019-06-05 19:00:00 22.9 17 Noroeste 32 Noroeste 0 -- -- 30
2019-06-05 18:00:00 22.6 19 Noroeste 34 Noroeste 0 -- -- 32
2019-06-05 17:00:00 22.3 17 Norte 34 Noroeste 0 -- -- 31
2019-06-05 16:00:00 21.6 17 Norte 35 Noroeste 0 -- -- 35
2019-06-05 15:00:00 20.9 16 Noroeste 37 Norte 0 -- -- 38
2019-06-05 14:00:00 20.2 18 Norte 39 Noroeste 0 -- -- 40
2019-06-05 13:00:00 19.3 21 Noroeste 43 Noroeste 0 -- -- 42
2019-06-05 12:00:00 18.1 19 Noroeste 39 Noroeste 0 -- -- 48
2019-06-05 11:00:00 16.6 24 Noroeste 37 Noroeste 0 -- -- 52
2019-06-05 10:00:00 15.2 19 Noroeste 37 Norte 0 -- -- 65
2019-06-05 09:00:00 13.4 18 Noroeste 32 Noroeste 0 -- -- 79
2019-06-05 08:00:00 12.2 17 Noroeste 29 Noroeste 0 -- -- 86
2019-06-05 07:00:00 11.4 12 Noroeste 24 Noroeste 0 -- -- 87
2019-06-05 06:00:00 11.9 17 Noroeste 28 Noroeste 0 -- -- 84
2019-06-05 05:00:00 12.5 15 Noroeste 35 Noroeste 0 -- -- 80
2019-06-05 04:00:00 13.2 18 Noroeste 33 Noroeste 0 -- -- 75
2019-06-05 03:00:00 13.8 19 Noroeste 34 Noroeste 0 -- -- 67
2019-06-05 02:00:00 14.8 19 Noroeste 37 Noroeste 0 -- -- 61
2019-06-05 01:00:00 15.8 22 Noroeste 43 Noroeste 0 -- -- 56
2019-06-05 00:00:00 16.7 22 Noroeste 41 Noroeste 0 -- -- 63
2019-06-04 23:00:00 19.2 20 Noroeste 39 Noroeste 0 -- -- 58
2019-06-04 22:00:00 20.1 24 Noroeste 42 Noroeste 0 -- -- 57
2019-06-04 21:00:00 21.6 23 Noroeste 45 Noroeste 0 -- -- 58
2019-06-04 20:00:00 22.5 31 Noroeste 49 Noroeste 0 -- -- 53
2019-06-04 19:00:00 25 33 Noroeste 50 Noroeste 0 -- -- 48
2019-06-04 18:00:00 26.9 18 Noroeste 35 Noroeste 0 -- -- 40
2019-06-04 17:00:00 26.4 20 Noroeste 39 Noroeste 0 -- -- 43
2019-06-04 16:00:00 25.7 19 Noroeste 30 Noroeste 0 -- -- 46
2019-06-04 15:00:00 24.9 15 Noroeste 31 Noroeste 0 -- -- 49
2019-06-04 14:00:00 24.3 17 Noroeste 32 Oeste 0 -- -- 51
2019-06-04 13:00:00 23.2 15 Noroeste 36 Noroeste 0 -- -- 53
2019-06-04 12:00:00 21.9 13 Noroeste 29 Noroeste 0 -- -- 57
2019-06-04 11:00:00 20.1 15 Norte 33 Norte 0 -- -- 63
2019-06-04 10:00:00 17.7 19 Norte 32 Noroeste 0 -- -- 75
2019-06-04 09:00:00 15.7 19 Norte 33 Noroeste 0 -- -- 88
2019-06-04 08:00:00 14.9 17 Noroeste 27 Noroeste 0 -- -- 94
2019-06-04 07:00:00 14.3 15 Noroeste 25 Noroeste 0 -- -- 95
2019-06-04 06:00:00 14.6 15 Noroeste 23 Noroeste 0 -- -- 94
2019-06-04 05:00:00 15.2 16 Noroeste 23 Noroeste 0 -- -- 91
2019-06-04 04:00:00 15.6 15 Noroeste 22 Noroeste 0 -- -- 89
2019-06-04 03:00:00 16.4 12 Noroeste 36 Noroeste 0 -- -- 84
2019-06-04 02:00:00 17.6 24 Noroeste 36 Noroeste 0 -- -- 79
2019-06-04 01:00:00 19.3 21 Noroeste 34 Noroeste 0 -- -- 68
2019-06-04 00:00:00 21.7 16 Noroeste 27 Noroeste 0 -- -- 41
2019-06-03 23:00:00 23.6 15 Noroeste 34 Noroeste 0 -- -- 35
2019-06-03 22:00:00 26.5 17 Noroeste 35 Noroeste 0 -- -- 28
2019-06-03 21:00:00 30.1 20 Noroeste 32 Noroeste 0 -- -- 22
2019-06-03 20:00:00 31.5 18 Sudoeste 34 Sur 0 -- -- 26
2019-06-03 19:00:00 33 18 Sur 32 Oeste 0 -- -- 23
2019-06-03 18:00:00 34.5 13 Oeste 27 Oeste 0 -- -- 17
2019-06-03 17:00:00 33.8 8 Norte 23 Sudoeste 0 -- -- 18
2019-06-03 16:00:00 34 7 Sur 21 Noroeste 0 -- -- 19
2019-06-03 15:00:00 33 8 Oeste 21 Norte 0 -- -- 19
2019-06-03 14:00:00 32.1 4 Norte 25 Noroeste 0 -- -- 19
2019-06-03 13:00:00 30.7 7 Nordeste 22 Noroeste 0 -- -- 21
2019-06-03 12:00:00 29 14 Noroeste 27 Noroeste 0 -- -- 23
2019-06-03 11:00:00 26.6 9 Norte 16 Norte 0 -- -- 29
2019-06-03 10:00:00 23 6 Noroeste 11 Noroeste 0 -- -- 40
2019-06-03 09:00:00 20.4 5 Noroeste 7 Noroeste 0 -- -- 50
2019-06-03 08:00:00 19.5 2 Norte 4 Norte 0 -- -- 54
2019-06-03 07:00:00 18.1 4 Norte 6 Norte 0 -- -- 60
2019-06-03 06:00:00 19.1 3 Norte 9 Noroeste 0 -- -- 50
2019-06-03 05:00:00 19.9 2 Oeste 5 Sudoeste 0 -- -- 51
2019-06-03 04:00:00 20.2 4 Sudeste 6 Sudeste 0 -- -- 50
2019-06-03 03:00:00 20.2 3 Sudoeste 6 Sudoeste 0 -- -- 49
2019-06-03 02:00:00 21.2 3 Este 7 Este 0 -- -- 47
2019-06-03 01:00:00 21.5 6 Nordeste 9 Nordeste 0 -- -- 46
2019-06-03 00:00:00 23 3 Nordeste 20 Sudoeste 0 -- -- 40
2019-06-02 23:00:00 23.2 14 Sur 35 Sur 0 -- -- 39
2019-06-02 22:00:00 24.8 26 Sur 34 Sur 0 -- -- 33
2019-06-02 21:00:00 26.7 27 Sur 41 Sur 0 -- -- 29
2019-06-02 20:00:00 29 30 Sudoeste 40 Sudoeste 0 -- -- 27
2019-06-02 19:00:00 31.7 26 Sudoeste 37 Sudoeste 0 -- -- 24
2019-06-02 18:00:00 32.9 27 Sur 42 Sur 0 -- -- 24
2019-06-02 17:00:00 35.2 10 Sur 28 Sudoeste 0 -- -- 21
2019-06-02 16:00:00 34.2 5 Norte 15 Nordeste 0 -- -- 20
2019-06-02 15:00:00 32.8 7 Norte 21 Nordeste 0 -- -- 21
2019-06-02 14:00:00 31.8 8 Este 15 Nordeste 0 -- -- 22
2019-06-02 13:00:00 30.1 5 Norte 18 Noroeste 0 -- -- 24
2019-06-02 12:00:00 29 4 Este 13 Oeste 0 -- -- 25
2019-06-02 11:00:00 26.9 5 Sudeste 9 Este 0 -- -- 27
2019-06-02 10:00:00 24.3 3 Sudoeste 6 Este 0 -- -- 33
2019-06-02 09:00:00 21.4 3 Nordeste 6 Nordeste 0 -- -- 45
2019-06-02 08:00:00 18.8 4 Este 5 Nordeste 0 -- -- 55
2019-06-02 07:00:00 17.3 3 Nordeste 5 Nordeste 0 -- -- 57
2019-06-02 06:00:00 17.1 2 Norte 8 Nordeste 0 -- -- 56
2019-06-02 05:00:00 18.4 3 Este 15 Sudoeste 0 -- -- 51
2019-06-02 04:00:00 18.7 10 Sudoeste 21 Sudoeste 0 -- -- 49
2019-06-02 03:00:00 19 14 Sudoeste 23 Sudoeste 0 -- -- 49
2019-06-02 02:00:00 20 17 Sudoeste 24 Sudoeste 0 -- -- 46
2019-06-02 01:00:00 20.9 20 Sudoeste 28 Sudoeste 0 -- -- 43
2019-06-02 00:00:00 -- 17 Sudoeste 22 Sudoeste 0 -- -- --
2019-06-01 23:00:00 21.8 10 Sudoeste 30 Sur 0 -- -- 42
2019-06-01 22:00:00 23.4 26 Sudoeste 36 Sudoeste 0 -- -- 37
2019-06-01 21:00:00 25.6 24 Sur 35 Sudoeste 0 -- -- 34
2019-06-01 20:00:00 28.2 25 Sudoeste 35 Sudoeste 0 -- -- 29
2019-06-01 19:00:00 31 26 Sudoeste 34 Sudoeste 0 -- -- 25
2019-06-01 18:00:00 33.2 21 Sur 40 Este 0 -- -- 22
2019-06-01 17:00:00 34 17 Este 39 Este 0 -- -- 17
2019-06-01 16:00:00 34.1 16 Este 31 Sudeste 0 -- -- 17
2019-06-01 15:00:00 33.5 14 Este 36 Este 0 -- -- 18
2019-06-01 14:00:00 32.5 14 Este 29 Este 0 -- -- 17
2019-06-01 13:00:00 30.7 18 Sudeste 37 Este 0 -- -- 19
2019-06-01 12:00:00 29.1 19 Este 34 Este 0 -- -- 23
2019-06-01 11:00:00 26.9 17 Este 35 Sudeste 0 -- -- 27
2019-06-01 10:00:00 24.6 13 Este 23 Este 0 -- -- 34
2019-06-01 09:00:00 22.3 12 Este 18 Este 0 -- -- 38
2019-06-01 08:00:00 19.7 4 Este 6 Este 0 -- -- 50
2019-06-01 07:00:00 18.2 5 Este 7 Nordeste 0 -- -- 53
2019-06-01 06:00:00 18.5 3 Norte 8 Norte 0 -- -- 53
2019-06-01 05:00:00 18.4 0 Calma 4 Norte 0 -- -- 55
2019-06-01 04:00:00 18.9 2 Norte 4 Norte 0 -- -- 53
2019-06-01 03:00:00 19 0 Calma 5 Oeste 0 -- -- 53
2019-06-01 02:00:00 19.5 3 Oeste 9 Oeste 0 -- -- 52
2019-06-01 01:00:00 20.2 4 Oeste 23 Sur 0 -- -- 49
2019-06-01 00:00:00 21.7 18 Sur 23 Sudoeste 0 -- -- 44
2019-05-31 23:00:00 23.2 16 Sudoeste 21 Sudoeste 0 -- -- 36
2019-05-31 22:00:00 24.2 16 Sudoeste 30 Sur 0 -- -- 33
2019-05-31 21:00:00 27.2 22 Sur 30 Sur 0 -- -- 30
2019-05-31 20:00:00 31 21 Sur 38 Este 0 -- -- 23
2019-05-31 19:00:00 32.9 14 Sudeste 37 Sur 0 -- -- 19
2019-05-31 18:00:00 33.1 19 Este 44 Este 0 -- -- 18
2019-05-31 17:00:00 33.4 19 Este 39 Este 0 -- -- 19
2019-05-31 16:00:00 32.5 27 Este 45 Sudeste 0 -- -- 19
2019-05-31 15:00:00 32.2 16 Sudeste 39 Este 0 -- -- 18
2019-05-31 14:00:00 31.1 18 Este 41 Este 0 -- -- 20
2019-05-31 13:00:00 29.6 22 Este 42 Este 0 -- -- 22
2019-05-31 12:00:00 28.3 24 Este 39 Este 0 -- -- 24
2019-05-31 11:00:00 26.2 20 Este 44 Este 0 -- -- 27
2019-05-31 10:00:00 24.6 24 Este 38 Este 0 -- -- 30
2019-05-31 09:00:00 21.1 11 Nordeste 21 Nordeste 0 -- -- 38
2019-05-31 08:00:00 18.6 12 Nordeste 15 Nordeste 0 -- -- 45
2019-05-31 07:00:00 17.8 8 Este 12 Este 0 -- -- 53
2019-05-31 06:00:00 17.4 5 Nordeste 9 Nordeste 0 -- -- 65
2019-05-31 05:00:00 17.6 5 Nordeste 9 Nordeste 0 -- -- 67
2019-05-31 04:00:00 18 6 Nordeste 8 Nordeste 0 -- -- 68
2019-05-31 03:00:00 19.2 5 Sudeste 14 Sudeste 0 -- -- 53
2019-05-31 02:00:00 18.6 3 Sudeste 8 Sudeste 0 -- -- 64
2019-05-31 01:00:00 18.9 5 Oeste 12 Oeste 0 -- -- 64
2019-05-31 00:00:00 19.7 8 Oeste 19 Sudoeste 0 -- -- 61
2019-05-30 23:00:00 20.9 21 Sudoeste 29 Sudoeste 0 -- -- 55
2019-05-30 22:00:00 22.5 24 Sur 31 Sudoeste 0 -- -- 50
2019-05-30 21:00:00 25.1 25 Sur 33 Sudoeste 0 -- -- 40
2019-05-30 20:00:00 27.9 23 Sur 35 Sur 0 -- -- 35
2019-05-30 19:00:00 30.6 22 Sudoeste 34 Sudoeste 0 -- -- 30
2019-05-30 18:00:00 32.6 15 Sudeste 40 Sur 0 -- -- 25
2019-05-30 17:00:00 32.5 14 Este 32 Este 0 -- -- 23
2019-05-30 16:00:00 32.1 12 Este 40 Este 0 -- -- 24
2019-05-30 15:00:00 31 15 Este 39 Nordeste 0 -- -- 27
2019-05-30 14:00:00 30.2 19 Este 41 Sudeste 0 -- -- 27
2019-05-30 13:00:00 29.1 19 Este 40 Este 0 -- -- 30
2019-05-30 12:00:00 27.5 19 Este 36 Este 0 -- -- 33
2019-05-30 11:00:00 25.2 11 Este 24 Este 0 -- -- 40
2019-05-30 10:00:00 23 12 Este 20 Este 0 -- -- 44
2019-05-30 09:00:00 21.1 10 Este 15 Este 0 -- -- 51
2019-05-30 08:00:00 18.3 0 Calma 6 Sudeste 0 -- -- 67
2019-05-30 07:00:00 16.8 0 Calma 5 Norte 0 -- -- 71
2019-05-30 06:00:00 17.4 0 Calma 5 Sudoeste 0 -- -- 70
2019-05-30 05:00:00 17.7 4 Sudoeste 13 Sur 0 -- -- 69
2019-05-30 04:00:00 18.4 6 Sur 13 Sudoeste 0 -- -- 66
2019-05-30 03:00:00 18.9 9 Sudoeste 18 Sudoeste 0 -- -- 64
2019-05-30 02:00:00 19.6 11 Sudoeste 24 Sudoeste 0 -- -- 60
2019-05-30 01:00:00 20.4 17 Sur 23 Sur 0 -- -- 57
2019-05-30 00:00:00 21.3 15 Sur 23 Sur 0 -- -- 54
2019-05-29 23:00:00 22.3 17 Sur 24 Sur 0 -- -- 51
2019-05-29 22:00:00 24.8 15 Sudoeste 22 Sur 0 -- -- 45
2019-05-29 21:00:00 27.8 14 Sudoeste 27 Sur 0 -- -- 37
2019-05-29 20:00:00 30.5 15 Sur 32 Sur 0 -- -- 31
2019-05-29 19:00:00 32 22 Sur 33 Sur 0 -- -- 28
2019-05-29 18:00:00 34.1 9 Norte 29 Sudeste 0 -- -- 18
2019-05-29 17:00:00 33.8 8 Sur 27 Este 0 -- -- 19
2019-05-29 16:00:00 33.5 8 Este 22 Este 0 -- -- 20
2019-05-29 15:00:00 32.5 13 Este 24 Nordeste 0 -- -- 20
2019-05-29 14:00:00 31.5 17 Este 32 Este 0 -- -- 21
2019-05-29 13:00:00 30.6 16 Este 31 Este 0 -- -- 21
2019-05-29 12:00:00 29.2 15 Este 33 Sudeste 0 -- -- 22
2019-05-29 11:00:00 27.3 12 Sudeste 25 Este 0 -- -- 25
2019-05-29 10:00:00 24.6 8 Este 19 Sudeste 0 -- -- 31
2019-05-29 09:00:00 23 12 Sur 15 Sudeste 0 -- -- 32
2019-05-29 08:00:00 23 6 Este 13 Este 0 -- -- 30
2019-05-29 07:00:00 22.1 4 Este 8 Este 0 -- -- 32
2019-05-29 06:00:00 22.4 5 Este 8 Norte 0 -- -- 31
2019-05-29 05:00:00 22.5 4 Norte 14 Norte 0 -- -- 31
2019-05-29 04:00:00 23.7 8 Norte 21 Nordeste 0 -- -- 28
2019-05-29 03:00:00 24.3 14 Nordeste 23 Nordeste 0 -- -- 27
2019-05-29 02:00:00 25.2 13 Norte 18 Norte 0 -- -- 25
2019-05-29 01:00:00 24.6 9 Nordeste 14 Nordeste 0 -- -- 43
2019-05-29 00:00:00 24.5 7 Nordeste 12 Nordeste 0 -- -- 48
2019-05-28 23:00:00 24.9 6 Este 12 Este 0 -- -- 50
2019-05-28 22:00:00 27.4 6 Este 17 Este 0 -- -- 42
2019-05-28 21:00:00 31.4 5 Sudeste 28 Nordeste 0 -- -- 32
2019-05-28 20:00:00 33.5 14 Norte 33 Norte 0 -- -- 23
2019-05-28 19:00:00 33.7 16 Norte 33 Norte 0 -- -- 23
2019-05-28 18:00:00 33.5 19 Noroeste 34 Noroeste 0 -- -- 24
2019-05-28 17:00:00 33.3 16 Norte 34 Noroeste 0 -- -- 25
2019-05-28 16:00:00 32.1 20 Noroeste 37 Noroeste 0 -- -- 27
2019-05-28 15:00:00 31.3 15 Norte 36 Noroeste 0 -- -- 30
2019-05-28 14:00:00 30.7 18 Norte 29 Noroeste 0 -- -- 32
2019-05-28 13:00:00 29.1 15 Noroeste 26 Noroeste 0 -- -- 38
2019-05-28 12:00:00 26 16 Noroeste 24 Oeste 0 -- -- 46
2019-05-28 11:00:00 22.5 17 Noroeste 26 Noroeste 0 -- -- 57
2019-05-28 10:00:00 18.5 16 Noroeste 26 Oeste 0 -- -- 70
2019-05-28 09:00:00 15.4 15 Noroeste 28 Noroeste 0 -- -- 81
2019-05-28 08:00:00 13.3 20 Noroeste 29 Noroeste 0 -- -- 89
2019-05-28 07:00:00 13.1 21 Noroeste 29 Noroeste 0 -- -- 89
2019-05-28 06:00:00 13.6 20 Noroeste 31 Noroeste 0 -- -- 87
2019-05-28 05:00:00 14.4 22 Noroeste 32 Noroeste 0 -- -- 84
2019-05-28 04:00:00 15.4 22 Noroeste 33 Noroeste 0 -- -- 80
2019-05-28 03:00:00 16.8 18 Noroeste 28 Noroeste 0 -- -- 75
2019-05-28 02:00:00 18.6 14 Noroeste 24 Noroeste 0 -- -- 68
2019-05-28 01:00:00 20.7 14 Noroeste 33 Noroeste 0 -- -- 58
2019-05-28 00:00:00 23 19 Noroeste 30 Noroeste 0 -- -- 49
2019-05-27 23:00:00 25 18 Noroeste 37 Noroeste 0 -- -- 47
2019-05-27 22:00:00 27.4 21 Noroeste 32 Noroeste 0 -- -- 41
2019-05-27 21:00:00 30.3 18 Noroeste 33 Noroeste 0 -- -- 33
2019-05-27 20:00:00 32.1 20 Noroeste 37 Noroeste 0 -- -- 25
2019-05-27 19:00:00 32.6 19 Noroeste 41 Oeste 0 -- -- 27
2019-05-27 18:00:00 32.3 22 Noroeste 37 Noroeste 0 -- -- 27
2019-05-27 17:00:00 33.5 20 Noroeste 38 Noroeste 0 -- -- 26
2019-05-27 16:00:00 33 12 Noroeste 30 Oeste 0 -- -- 25
2019-05-27 15:00:00 32.4 15 Noroeste 35 Noroeste 0 -- -- 24
2019-05-27 14:00:00 31.4 11 Noroeste 25 Oeste 0 -- -- 29
2019-05-27 13:00:00 30.5 12 Noroeste 24 Oeste 0 -- -- 30
2019-05-27 12:00:00 28.1 12 Noroeste 18 Noroeste 0 -- -- 37
2019-05-27 11:00:00 25.1 12 Noroeste 19 Oeste 0 -- -- 46
2019-05-27 10:00:00 21.7 13 Noroeste 22 Noroeste 0 -- -- 56
2019-05-27 09:00:00 18.9 13 Noroeste 21 Oeste 0 -- -- 65
2019-05-27 08:00:00 17.5 9 Oeste 17 Noroeste 0 -- -- 70
2019-05-27 07:00:00 17.3 7 Oeste 21 Noroeste 0 -- -- 70
2019-05-27 06:00:00 18.4 9 Noroeste 15 Noroeste 0 -- -- 66
2019-05-27 05:00:00 19.1 7 Noroeste 15 Noroeste 0 -- -- 62
2019-05-27 04:00:00 19.4 4 Oeste 8 Noroeste 0 -- -- 61
2019-05-27 03:00:00 20.4 3 Oeste 14 Norte 0 -- -- 55
2019-05-27 02:00:00 21 7 Noroeste 10 Noroeste 0 -- -- 50
2019-05-27 01:00:00 19.9 2 Norte 30 Noroeste 0 -- -- 52
2019-05-27 00:00:00 20.4 6 Este 8 Este 0 -- -- 53